Time;durP1;ratioP1;P1;durP2;ratioP2;P2;SDS_P1;SDS_P2;PMS_P1;PMS_P2;Temp;Humidity;BMP_temperature;BMP_pressure;BME280_temperature;BME280_humidity;BME280_pressure;Samples;Min_cycle;Max_cycle;Signal;HPM_P1;HPM_P2
2023/03/09 00:01:38;;;;;;;0.63;0.63;;;;;;;-2.97;62.12;98607.50;5027758;28;20097;-64
2023/03/09 00:04:03;;;;;;;0.60;0.60;;;;;;;-2.95;62.18;98613.44;5026992;28;20445;-63
2023/03/09 00:06:29;;;;;;;0.70;0.70;;;;;;;-2.99;61.69;98610.84;5027620;28;20025;-63
2023/03/09 00:08:55;;;;;;;0.60;0.60;;;;;;;-2.94;60.92;98615.16;5025938;28;20049;-63
2023/03/09 00:11:20;;;;;;;0.60;0.60;;;;;;;-2.92;61.20;98609.25;5027212;28;20084;-66
2023/03/09 00:13:47;;;;;;;0.60;0.60;;;;;;;-2.92;60.28;98608.41;5025926;28;20026;-64
2023/03/09 00:16:16;;;;;;;0.55;0.55;;;;;;;-2.92;60.62;98603.31;5027022;28;20030;-65
2023/03/09 00:18:42;;;;;;;0.70;0.70;;;;;;;-2.90;59.68;98607.63;5026844;28;20036;-64
2023/03/09 00:21:15;;;;;;;0.60;0.60;;;;;;;-2.88;59.42;98610.19;5027210;28;20082;-64
2023/03/09 00:23:45;;;;;;;0.68;0.68;;;;;;;-2.86;60.11;98609.38;5027111;28;20045;-64
2023/03/09 00:26:11;;;;;;;0.60;0.60;;;;;;;-2.84;59.40;98606.84;5025722;28;20049;-64
2023/03/09 00:28:37;;;;;;;0.70;0.70;;;;;;;-2.80;59.61;98603.56;5027001;28;20029;-64
2023/03/09 00:31:05;;;;;;;0.60;0.60;;;;;;;-2.78;60.01;98596.78;5026932;28;20030;-64
2023/03/09 00:33:30;;;;;;;0.60;0.60;;;;;;;-2.77;61.00;98598.53;5026667;28;20026;-64
2023/03/09 00:35:56;;;;;;;0.60;0.60;;;;;;;-2.80;60.53;98590.00;5026256;28;20485;-64
2023/03/09 00:38:21;;;;;;;0.60;0.60;;;;;;;-2.75;60.54;98596.84;5026893;28;20032;-64
2023/03/09 00:40:47;;;;;;;0.60;0.60;;;;;;;-2.74;59.86;98593.50;5026805;28;20163;-64
2023/03/09 00:43:12;;;;;;;0.60;0.60;;;;;;;-2.69;60.94;98596.09;5026555;28;20077;-64
2023/03/09 00:45:38;;;;;;;0.60;0.60;;;;;;;-2.71;61.46;98584.19;5026461;28;20030;-64
2023/03/09 00:48:03;;;;;;;0.63;0.63;;;;;;;-2.64;60.69;98586.00;5026141;28;20033;-64
2023/03/09 00:50:29;;;;;;;0.50;0.50;;;;;;;-2.64;61.24;98583.47;5026341;28;20022;-64
2023/03/09 00:52:54;;;;;;;0.60;0.60;;;;;;;-2.60;61.57;98586.94;5026267;28;20081;-64
2023/03/09 00:55:20;;;;;;;0.60;0.60;;;;;;;-2.58;61.92;98585.25;5026353;28;20080;-65
2023/03/09 00:57:45;;;;;;;0.50;0.50;;;;;;;-2.57;62.32;98576.81;5026393;28;20395;-65
2023/03/09 01:00:11;;;;;;;0.60;0.60;;;;;;;-2.58;62.65;98580.16;5026504;28;20048;-64
2023/03/09 01:02:37;;;;;;;0.60;0.60;;;;;;;-2.67;62.70;98568.19;5025771;28;20029;-64
2023/03/09 01:05:03;;;;;;;0.60;0.60;;;;;;;-2.63;62.05;98570.78;5025980;28;20029;-64
2023/03/09 01:07:30;;;;;;;0.60;0.60;;;;;;;-2.65;62.92;98569.91;5025769;28;20541;-64
2023/03/09 01:09:55;;;;;;;0.50;0.50;;;;;;;-2.70;62.25;98573.22;5026226;28;20299;-64
2023/03/09 01:12:21;;;;;;;0.60;0.60;;;;;;;-2.74;61.83;98573.16;5026116;28;20280;-64
2023/03/09 01:14:48;;;;;;;1.48;1.40;;;;;;;-2.76;61.14;98559.59;5024416;28;20013;-64
2023/03/09 01:17:13;;;;;;;0.60;0.60;;;;;;;-2.70;61.26;98579.13;5026188;28;20433;-64
2023/03/09 01:19:39;;;;;;;0.60;0.60;;;;;;;-2.65;60.86;98569.06;5024384;28;20030;-65
2023/03/09 01:22:04;;;;;;;0.60;0.60;;;;;;;-2.65;61.07;98564.00;5025757;28;20026;-64
2023/03/09 01:24:30;;;;;;;0.60;0.60;;;;;;;-2.62;60.54;98567.41;5025792;28;20071;-64
2023/03/09 01:26:55;;;;;;;0.95;0.95;;;;;;;-2.61;60.92;98558.09;5025894;28;20060;-64
2023/03/09 01:29:21;;;;;;;0.63;0.63;;;;;;;-2.60;61.33;98567.44;5026010;28;20026;-64
2023/03/09 01:31:46;;;;;;;0.60;0.60;;;;;;;-2.65;61.06;98552.13;5024329;28;20053;-64
2023/03/09 01:34:12;;;;;;;0.50;0.50;;;;;;;-2.63;60.01;98554.69;5025528;28;20049;-64
2023/03/09 01:36:39;;;;;;;0.60;0.60;;;;;;;-2.60;59.88;98559.81;5025473;28;20033;-64
2023/03/09 01:39:04;;;;;;;0.70;0.70;;;;;;;-2.58;59.85;98552.22;5025668;28;20026;-65
2023/03/09 01:41:30;;;;;;;0.60;0.60;;;;;;;-2.61;59.91;98545.41;5025398;28;20033;-64
2023/03/09 01:43:56;;;;;;;0.60;0.60;;;;;;;-2.64;59.30;98540.28;5025187;28;20018;-64
2023/03/09 01:46:24;;;;;;;0.60;0.60;;;;;;;-2.61;59.28;98540.31;5025434;28;20026;-63
2023/03/09 01:48:55;;;;;;;0.60;0.60;;;;;;;-2.59;59.22;98542.88;5024969;28;20030;-64
2023/03/09 01:51:23;;;;;;;0.60;0.60;;;;;;;-2.61;59.09;98535.25;5025114;28;20032;-64
2023/03/09 01:53:50;;;;;;;0.60;0.60;;;;;;;-2.63;58.76;98527.59;5025104;28;20046;-64
2023/03/09 01:56:19;;;;;;;0.60;0.60;;;;;;;-2.55;58.54;98531.94;5024963;28;20041;-64
2023/03/09 01:58:47;;;;;;;0.60;0.60;;;;;;;-2.54;59.01;98533.66;5025112;28;20021;-64
2023/03/09 02:01:13;;;;;;;0.70;0.70;;;;;;;-2.49;59.22;98530.34;5025310;28;20022;-63
2023/03/09 02:03:42;;;;;;;0.60;0.60;;;;;;;-2.46;58.88;98533.75;5024742;28;20049;-64
2023/03/09 02:06:17;;;;;;;0.60;0.60;;;;;;;-2.49;59.06;98527.78;5025077;28;20088;-64
2023/03/09 02:08:58;;;;;;;0.55;0.55;;;;;;;-2.52;58.49;98527.75;5025192;28;20033;-64
2023/03/09 02:11:23;;;;;;;0.60;0.60;;;;;;;-2.51;58.11;98523.53;5023945;28;20112;-64
2023/03/09 02:13:51;;;;;;;0.70;0.70;;;;;;;-2.49;58.21;98526.94;5024308;28;20092;-64
2023/03/09 02:16:17;;;;;;;0.60;0.60;;;;;;;-2.50;58.77;98522.69;5023567;28;20026;-65
2023/03/09 02:18:43;;;;;;;0.60;0.60;;;;;;;-2.45;58.85;98522.75;5024795;28;20116;-64
2023/03/09 02:21:45;;;;;;;0.60;0.60;;;;;;;-2.43;58.43;98524.47;5024878;28;20033;-65
2023/03/09 02:24:10;;;;;;;;;;;;;;;-2.40;58.67;98523.69;5023809;28;20030;-64
2023/03/09 02:26:45;;;;;;;0.70;0.70;;;;;;;-2.54;59.42;98509.06;5024780;28;19916;-65
2023/03/09 02:29:11;;;;;;;0.90;0.90;;;;;;;-2.45;59.48;98522.75;5024961;28;20077;-64
2023/03/09 02:31:37;;;;;;;0.60;0.60;;;;;;;-2.45;60.11;98527.84;5025055;28;20029;-64
2023/03/09 02:34:02;;;;;;;0.63;0.63;;;;;;;-2.41;60.58;98525.34;5025043;28;20100;-64
2023/03/09 02:36:28;;;;;;;0.60;0.60;;;;;;;-2.37;60.68;98528.78;5024271;28;20022;-64
2023/03/09 02:38:54;;;;;;;0.60;0.60;;;;;;;-2.35;61.11;98526.28;5024864;28;20036;-64
2023/03/09 02:41:20;;;;;;;0.60;0.60;;;;;;;-2.34;61.01;98523.75;5024983;28;20118;-64
2023/03/09 02:43:55;;;;;;;0.60;0.60;;;;;;;-2.29;61.20;98524.69;5024876;28;20026;-64
2023/03/09 02:46:20;;;;;;;0.60;0.60;;;;;;;-2.21;61.42;98522.22;5024747;28;20022;-63
2023/03/09 02:48:46;;;;;;;0.60;0.60;;;;;;;-2.17;61.60;98518.88;5024632;28;20033;-65
2023/03/09 02:51:11;;;;;;;0.60;0.60;;;;;;;-2.15;61.74;98511.28;5024115;28;20060;-65
2023/03/09 02:53:37;;;;;;;0.60;0.60;;;;;;;-2.05;61.90;98517.34;5024420;28;20111;-65
2023/03/09 02:56:02;;;;;;;0.60;0.60;;;;;;;-2.02;61.82;98513.16;5024708;28;20502;-66
2023/03/09 02:58:28;;;;;;;0.60;0.60;;;;;;;-1.98;61.77;98519.09;5023238;28;20129;-66
2023/03/09 03:00:53;;;;;;;0.60;0.60;;;;;;;-1.94;62.14;98518.31;5024396;28;20026;-64
2023/03/09 03:03:20;;;;;;;0.60;0.60;;;;;;;-1.91;62.10;98509.84;5023297;28;20026;-64
2023/03/09 03:05:46;;;;;;;0.60;0.60;;;;;;;-1.93;61.93;98504.75;5023310;28;20538;-64
2023/03/09 03:08:14;;;;;;;0.60;0.60;;;;;;;-1.90;61.55;98511.59;5024560;28;20058;-65
2023/03/09 03:10:39;;;;;;;0.60;0.60;;;;;;;-1.88;61.77;98508.22;5024521;28;20092;-65
2023/03/09 03:13:04;;;;;;;0.60;0.60;;;;;;;-1.86;61.88;98513.31;5024397;28;20022;-66
2023/03/09 03:15:30;;;;;;;0.60;0.60;;;;;;;-1.87;61.97;98516.72;5024586;28;20033;-65
2023/03/09 03:17:55;;;;;;;0.52;0.52;;;;;;;-1.90;61.91;98511.59;5024304;28;20030;-65
2023/03/09 03:20:21;;;;;;;0.60;0.60;;;;;;;-1.86;62.45;98513.31;5024775;28;20021;-65
2023/03/09 03:22:46;;;;;;;0.60;0.60;;;;;;;-1.82;62.31;98515.03;5024698;28;20417;-65
2023/03/09 03:25:12;;;;;;;0.60;0.60;;;;;;;-1.83;62.33;98515.88;5026963;28;20474;-65
2023/03/09 03:27:38;;;;;;;0.60;0.60;;;;;;;-1.79;62.58;98516.78;5028106;28;20030;-65
2023/03/09 03:30:04;;;;;;;0.60;0.60;;;;;;;-1.75;62.44;98515.97;5028166;28;20029;-65
2023/03/09 03:32:30;;;;;;;0.60;0.60;;;;;;;-1.70;62.48;98516.03;5027981;28;20056;-65
2023/03/09 03:34:55;;;;;;;0.60;0.60;;;;;;;-1.66;62.31;98520.31;5026121;28;20029;-65
2023/03/09 03:37:21;;;;;;;0.60;0.60;;;;;;;-1.65;62.51;98507.63;5028355;28;20022;-65
2023/03/09 03:39:46;;;;;;;0.60;0.60;;;;;;;-1.58;62.34;98512.75;5028086;28;20026;-64
2023/03/09 03:42:12;;;;;;;0.65;0.65;;;;;;;-1.54;62.27;98509.41;5027881;28;20045;-65
2023/03/09 03:44:37;;;;;;;0.60;0.60;;;;;;;-1.48;62.63;98513.69;5027770;28;20466;-64
2023/03/09 03:47:03;;;;;;;0.60;0.60;;;;;;;-1.46;62.49;98515.44;5027711;28;20026;-64
2023/03/09 03:49:28;;;;;;;0.60;0.60;;;;;;;-1.45;62.69;98521.38;5027326;28;20022;-65
2023/03/09 03:51:54;;;;;;;0.50;0.50;;;;;;;-1.53;62.53;98501.78;5028678;28;20045;-64
2023/03/09 03:54:19;;;;;;;0.60;0.60;;;;;;;-1.43;62.74;98514.59;5026086;28;20045;-65
2023/03/09 03:56:45;;;;;;;0.55;0.55;;;;;;;-1.40;62.71;98517.16;5027583;28;20109;-65
2023/03/09 03:59:10;;;;;;;0.50;0.50;;;;;;;-1.39;62.55;98518.91;5028390;28;20057;-64
2023/03/09 04:01:36;;;;;;;0.60;0.60;;;;;;;-1.37;62.81;98518.06;5026523;28;20084;-65
2023/03/09 04:04:02;;;;;;;0.60;0.60;;;;;;;-1.30;62.60;98515.56;5027275;28;20025;-64
2023/03/09 04:06:27;;;;;;;0.70;0.70;;;;;;;-1.28;62.36;98514.72;5026087;28;20137;-66
2023/03/09 04:08:52;;;;;;;0.50;0.50;;;;;;;-1.26;62.43;98510.50;5027268;28;20033;-64
2023/03/09 04:11:18;;;;;;;0.60;0.60;;;;;;;-1.24;62.65;98513.06;5027275;28;20078;-65
2023/03/09 04:13:48;;;;;;;0.60;0.60;;;;;;;-1.23;62.78;98516.47;5027350;28;20113;-64
2023/03/09 04:16:14;;;;;;;0.52;0.52;;;;;;;-1.23;62.55;98508.84;5027368;28;20040;-65
2023/03/09 04:18:39;;;;;;;0.60;0.60;;;;;;;-1.21;62.40;98507.16;5026874;28;20026;-65
2023/03/09 04:21:04;;;;;;;0.50;0.50;;;;;;;-1.18;62.44;98519.94;5026937;28;20022;-65
2023/03/09 04:23:30;;;;;;;0.50;0.50;;;;;;;-1.16;62.65;98510.59;5025913;28;20045;-65
2023/03/09 04:26:01;;;;;;;0.60;0.60;;;;;;;-1.17;62.48;98509.75;5026606;28;20045;-65
2023/03/09 04:28:27;;;;;;;0.60;0.60;;;;;;;-1.17;62.56;98508.91;5027087;28;20025;-65
2023/03/09 04:30:53;;;;;;;0.60;0.60;;;;;;;-1.16;62.71;98506.34;5026728;28;20089;-65
2023/03/09 04:33:19;;;;;;;0.60;0.60;;;;;;;-1.12;62.61;98507.25;5026912;28;20041;-65
2023/03/09 04:35:44;;;;;;;0.60;0.60;;;;;;;-1.11;62.75;98508.94;5024312;28;20092;-65
2023/03/09 04:38:10;;;;;;;0.60;0.60;;;;;;;-1.10;62.77;98515.72;5026853;28;20026;-65
2023/03/09 04:40:36;;;;;;;0.50;0.50;;;;;;;-1.12;63.09;98504.69;5026464;28;20045;-66
2023/03/09 04:43:02;;;;;;;0.60;0.60;;;;;;;-1.08;62.99;98513.19;5025335;28;20083;-67
2023/03/09 04:45:28;;;;;;;0.60;0.60;;;;;;;-1.07;63.05;98505.56;5026550;28;20026;-67
2023/03/09 04:47:53;;;;;;;0.50;0.50;;;;;;;-1.09;62.59;98493.66;5024832;28;20025;-66
2023/03/09 04:50:19;;;;;;;0.60;0.60;;;;;;;-0.98;62.56;98509.91;5024660;28;20028;-66
2023/03/09 04:52:44;;;;;;;0.60;0.60;;;;;;;-0.94;62.36;98516.72;5026201;28;20093;-66
2023/03/09 04:55:10;;;;;;;0.50;0.50;;;;;;;-0.90;62.08;98515.06;5024480;28;20137;-66
2023/03/09 04:57:35;;;;;;;0.60;0.60;;;;;;;-0.89;62.21;98517.59;5026112;28;20036;-66
2023/03/09 05:00:04;;;;;;;0.60;0.60;;;;;;;-0.92;62.13;98494.66;5026233;28;20026;-66
2023/03/09 05:02:30;;;;;;;0.60;0.60;;;;;;;-0.82;62.43;98507.47;5026180;28;20060;-67
2023/03/09 05:04:55;;;;;;;0.50;0.50;;;;;;;-0.80;62.50;98514.25;5026028;28;20021;-65
2023/03/09 05:07:21;;;;;;;0.60;0.60;;;;;;;-0.77;62.46;98519.38;5026287;28;20026;-65
2023/03/09 05:09:48;;;;;;;0.60;0.60;;;;;;;-0.76;62.88;98516.00;5026428;28;20041;-64
2023/03/09 05:12:13;;;;;;;0.60;0.60;;;;;;;-0.76;62.63;98518.56;5025962;28;20057;-67
2023/03/09 05:14:39;;;;;;;0.60;0.60;;;;;;;-0.75;63.21;98517.69;5025951;28;20053;-65
2023/03/09 05:17:04;;;;;;;0.50;0.50;;;;;;;-0.70;63.57;98520.28;5026007;28;20022;-65
2023/03/09 05:19:29;;;;;;;0.60;0.60;;;;;;;-0.67;63.94;98516.91;5025743;28;20085;-65
2023/03/09 05:21:55;;;;;;;0.60;0.60;;;;;;;-0.64;64.14;98527.13;5026083;28;20068;-66
2023/03/09 05:24:20;;;;;;;0.60;0.60;;;;;;;-0.61;63.96;98518.63;5025734;28;20033;-65
2023/03/09 05:26:46;;;;;;;0.60;0.60;;;;;;;-0.57;64.41;98523.75;5025463;28;20022;-65
2023/03/09 05:29:11;;;;;;;0.50;0.50;;;;;;;-0.53;64.62;98524.66;5024850;28;20045;-65
2023/03/09 05:31:37;;;;;;;0.60;0.60;;;;;;;-0.50;65.01;98522.94;5024644;28;20089;-64
2023/03/09 05:34:02;;;;;;;0.60;0.60;;;;;;;-0.50;65.14;98517.84;5024976;28;20064;-65
2023/03/09 05:36:29;;;;;;;0.50;0.50;;;;;;;-0.45;65.68;98514.50;5025207;28;20033;-65
2023/03/09 05:38:54;;;;;;;0.60;0.60;;;;;;;-0.40;66.00;98506.00;5025584;28;20017;-65
2023/03/09 05:41:20;;;;;;;0.52;0.52;;;;;;;-0.42;66.35;98507.72;5025059;28;20036;-65
2023/03/09 05:43:45;;;;;;;0.60;0.60;;;;;;;-0.31;66.50;98517.97;5025304;28;20082;-65
2023/03/09 05:46:13;;;;;;;0.60;0.60;;;;;;;-0.31;66.86;98507.78;5025490;28;20017;-65
2023/03/09 05:48:39;;;;;;;4.30;4.03;;;;;;;-0.27;67.11;98511.16;5025320;28;20026;-65
2023/03/09 05:51:07;;;;;;;0.50;0.50;;;;;;;-0.24;67.44;98507.81;5025259;28;20054;-66
2023/03/09 05:53:33;;;;;;;0.50;0.50;;;;;;;-0.20;67.68;98512.06;5025222;28;20233;-67
2023/03/09 05:55:59;;;;;;;0.60;0.60;;;;;;;-0.23;67.87;98495.06;5025553;28;20064;-66
2023/03/09 05:58:25;;;;;;;0.60;0.60;;;;;;;-0.14;68.05;98505.28;5025586;28;20057;-65
2023/03/09 06:00:53;;;;;;;0.68;0.68;;;;;;;0.02;68.13;98504.53;5024095;28;20095;-66
2023/03/09 06:03:19;;;;;;;0.50;0.50;;;;;;;0.10;68.34;98507.94;5025238;28;20033;-65
2023/03/09 06:05:45;;;;;;;0.60;0.60;;;;;;;0.22;68.38;98509.69;5024550;28;20049;-66
2023/03/09 06:08:11;;;;;;;0.50;0.50;;;;;;;0.39;68.22;98501.19;5025389;28;20030;-66
2023/03/09 06:10:37;;;;;;;0.50;0.50;;;;;;;0.49;68.07;98506.34;5025042;28;20032;-65
2023/03/09 06:13:03;;;;;;;0.50;0.50;;;;;;;0.51;67.77;98497.81;5024072;28;20025;-65
2023/03/09 06:15:28;;;;;;;0.47;0.47;;;;;;;0.57;67.84;98508.06;5025129;28;20079;-66
2023/03/09 06:17:53;;;;;;;0.50;0.50;;;;;;;0.61;67.83;98509.75;5025140;28;20030;-65
2023/03/09 06:20:19;;;;;;;0.50;0.50;;;;;;;0.68;67.98;98510.63;5025128;28;20028;-66
2023/03/09 06:22:45;;;;;;;0.50;0.50;;;;;;;0.71;67.85;98508.91;5025415;28;20033;-66
2023/03/09 06:25:10;;;;;;;0.50;0.50;;;;;;;0.66;67.56;98508.06;5025102;28;20394;-67
2023/03/09 06:27:36;;;;;;;0.50;0.50;;;;;;;0.71;67.22;98505.50;5025213;28;20029;-67
2023/03/09 06:30:03;;;;;;;0.50;0.50;;;;;;;0.71;66.58;98514.03;5024928;28;20072;-66
2023/03/09 06:32:32;;;;;;;0.50;0.50;;;;;;;0.74;66.55;98513.16;5025086;28;20034;-65
2023/03/09 06:34:57;;;;;;;0.65;0.65;;;;;;;0.93;66.43;98508.06;5022873;28;20083;-65
2023/03/09 06:37:23;;;;;;;0.50;0.50;;;;;;;1.12;64.55;98511.47;5024808;28;20030;-67
2023/03/09 06:39:48;;;;;;;0.50;0.50;;;;;;;1.17;63.28;98521.69;5023464;28;20111;-66
2023/03/09 06:42:14;;;;;;;0.50;0.50;;;;;;;1.14;62.03;98520.00;5024849;28;20451;-66
2023/03/09 06:44:39;;;;;;;0.50;0.50;;;;;;;1.57;62.10;98515.66;5024806;28;20124;-65
2023/03/09 06:47:05;;;;;;;0.60;0.60;;;;;;;2.27;62.19;98522.25;5024722;28;20034;-66
2023/03/09 06:49:30;;;;;;;0.50;0.50;;;;;;;2.91;60.23;98529.53;5024497;28;20028;-64
2023/03/09 06:51:57;;;;;;;0.50;0.50;;;;;;;3.37;57.98;98515.47;5024841;28;20033;-66
2023/03/09 06:54:22;;;;;;;0.50;0.50;;;;;;;3.65;56.50;98509.22;5024353;28;20045;-65
2023/03/09 06:56:48;;;;;;;0.40;0.40;;;;;;;3.64;54.43;98528.06;5024868;28;20026;-65
2023/03/09 06:59:14;;;;;;;0.57;0.57;;;;;;;3.54;54.81;98528.16;5025814;28;20470;-68
2023/03/09 07:01:40;;;;;;;0.57;0.57;;;;;;;3.42;55.03;98523.97;5028679;28;20075;-65
2023/03/09 07:04:07;;;;;;;1.52;1.45;;;;;;;3.44;54.76;98521.38;5028510;28;20042;-65
2023/03/09 07:06:32;;;;;;;0.50;0.50;;;;;;;3.32;54.85;98532.63;5028553;28;20037;-65
2023/03/09 07:08:58;;;;;;;0.50;0.50;;;;;;;3.13;54.62;98537.06;5028540;28;20021;-66
2023/03/09 07:11:23;;;;;;;0.60;0.60;;;;;;;2.95;55.23;98532.09;5028649;28;20032;-64
2023/03/09 07:13:49;;;;;;;0.50;0.50;;;;;;;2.84;56.21;98534.69;5028864;28;20053;-67
2023/03/09 07:16:14;;;;;;;0.50;0.50;;;;;;;2.62;55.82;98534.00;5028166;28;20465;-64
2023/03/09 07:18:40;;;;;;;0.50;0.50;;;;;;;2.47;55.89;98537.50;5027876;28;20033;-67
2023/03/09 07:21:06;;;;;;;0.50;0.50;;;;;;;2.34;55.76;98527.34;5028237;28;20041;-66
2023/03/09 07:23:32;;;;;;;0.50;0.50;;;;;;;2.48;56.35;98532.38;5027906;28;20026;-67
2023/03/09 07:25:59;;;;;;;0.50;0.50;;;;;;;3.02;57.03;98544.84;5028161;28;20018;-66
2023/03/09 07:28:25;;;;;;;0.50;0.50;;;;;;;3.97;55.97;98542.25;5028355;28;20026;-65
2023/03/09 07:30:50;;;;;;;0.50;0.50;;;;;;;4.84;53.58;98540.22;5028229;28;20036;-65
2023/03/09 07:33:16;;;;;;;0.50;0.50;;;;;;;5.63;53.89;98544.94;5027592;28;20025;-65
2023/03/09 07:35:41;;;;;;;0.50;0.50;;;;;;;6.48;53.83;98530.44;5027090;28;20060;-64
2023/03/09 07:38:07;;;;;;;0.40;0.40;;;;;;;7.01;51.41;98534.41;5028176;28;20056;-66
2023/03/09 07:40:32;;;;;;;0.50;0.50;;;;;;;7.15;48.44;98547.81;5028040;28;20033;-66
2023/03/09 07:42:58;;;;;;;0.50;0.50;;;;;;;6.88;47.42;98536.41;5027690;28;20557;-66
2023/03/09 07:45:23;;;;;;;0.40;0.40;;;;;;;6.68;49.42;98545.44;5027737;28;20021;-64
2023/03/09 07:47:49;;;;;;;0.50;0.50;;;;;;;6.56;46.96;98536.25;5027687;28;20081;-64
2023/03/09 07:50:15;;;;;;;0.50;0.50;;;;;;;6.28;47.68;98553.16;5027161;28;20022;-64
2023/03/09 07:52:41;;;;;;;0.50;0.50;;;;;;;6.43;49.54;98556.31;5026397;28;20055;-64
2023/03/09 07:55:11;;;;;;;0.50;0.50;;;;;;;6.84;50.67;98556.25;5027347;28;20046;-65
2023/03/09 07:57:38;;;;;;;0.43;0.43;;;;;;;7.21;48.00;98549.38;5027591;28;20018;-64
2023/03/09 08:00:11;;;;;;;0.50;0.50;;;;;;;7.51;48.59;98536.59;5027831;28;20080;-65
2023/03/09 08:02:36;;;;;;;0.50;0.50;;;;;;;7.48;46.61;98554.75;5028923;28;20053;-64
2023/03/09 08:05:02;;;;;;;0.50;0.50;;;;;;;6.75;45.73;98543.59;5029520;28;20034;-65
2023/03/09 08:07:27;;;;;;;0.50;0.50;;;;;;;6.04;48.10;98544.16;5028993;28;20396;-66
2023/03/09 08:09:53;;;;;;;0.40;0.40;;;;;;;5.74;49.07;98551.59;5026843;28;20029;-64
2023/03/09 08:12:18;;;;;;;0.50;0.50;;;;;;;5.55;49.71;98564.81;5027801;28;20022;-66
2023/03/09 08:14:43;;;;;;;0.40;0.40;;;;;;;5.24;50.01;98562.78;5027276;28;20026;-65
2023/03/09 08:17:09;;;;;;;0.40;0.40;;;;;;;4.81;50.76;98570.25;5027253;28;20048;-67
2023/03/09 08:19:34;;;;;;;0.40;0.40;;;;;;;4.29;51.21;98563.25;5025504;28;20026;-65
2023/03/09 08:22:00;;;;;;;0.45;0.45;;;;;;;3.90;52.76;98573.97;5027153;28;20034;-65
2023/03/09 08:24:25;;;;;;;0.40;0.40;;;;;;;3.63;54.02;98575.94;5027130;28;20081;-64
2023/03/09 08:26:51;;;;;;;0.40;0.40;;;;;;;3.57;54.79;98583.72;5025887;28;20040;-66
2023/03/09 08:29:16;;;;;;;0.50;0.50;;;;;;;3.50;54.78;98594.91;5026922;28;20486;-63
2023/03/09 08:31:41;;;;;;;0.50;0.50;;;;;;;3.56;55.38;98587.97;5027003;28;20090;-65
2023/03/09 08:34:08;;;;;;;0.50;0.50;;;;;;;3.50;55.29;98582.91;5026409;28;20026;-64
2023/03/09 08:36:33;;;;;;;0.50;0.50;;;;;;;3.30;55.14;98589.06;5026259;28;20121;-66
2023/03/09 08:38:59;;;;;;;0.50;0.50;;;;;;;3.00;56.01;98582.47;5026892;28;20046;-65
2023/03/09 08:41:24;;;;;;;0.50;0.50;;;;;;;2.81;56.07;98600.53;5026627;28;20036;-66
2023/03/09 08:43:50;;;;;;;0.40;0.40;;;;;;;2.59;56.65;98593.81;5026743;28;20014;-64
2023/03/09 08:46:16;;;;;;;0.50;0.50;;;;;;;2.54;56.94;98599.81;5026646;28;20605;-65
2023/03/09 08:48:42;;;;;;;0.50;0.50;;;;;;;2.53;57.20;98603.22;5025965;28;20032;-67
2023/03/09 08:51:09;;;;;;;0.50;0.50;;;;;;;2.54;57.81;98584.44;5026231;28;20022;-66
2023/03/09 08:53:36;;;;;;;0.50;0.50;;;;;;;2.49;57.78;98602.41;5026220;28;20098;-66
2023/03/09 08:56:10;;;;;;;0.50;0.50;;;;;;;2.42;58.21;98603.28;5026433;28;20026;-65
2023/03/09 08:58:36;;;;;;;0.50;0.50;;;;;;;2.36;58.75;98583.69;5026300;28;20021;-65
2023/03/09 09:01:04;;;;;;;0.50;0.50;;;;;;;2.41;59.33;98599.84;5026572;28;20026;-65
2023/03/09 09:03:30;;;;;;;0.50;0.50;;;;;;;2.39;59.65;98588.78;5026347;28;20081;-66
2023/03/09 09:05:56;;;;;;;0.50;0.50;;;;;;;2.45;59.43;98577.66;5026081;28;20069;-65
2023/03/09 09:08:21;;;;;;;0.50;0.50;;;;;;;2.38;59.22;98592.19;5026341;28;20026;-65
2023/03/09 09:10:47;;;;;;;0.60;0.60;;;;;;;2.39;59.27;98596.47;5026220;28;20033;-65
2023/03/09 09:13:12;;;;;;;0.50;0.50;;;;;;;2.41;59.38;98596.47;5026054;28;20026;-66
2023/03/09 09:15:39;;;;;;;0.50;0.50;;;;;;;2.33;60.34;98599.06;5026043;28;20056;-67
2023/03/09 09:18:05;;;;;;;0.52;0.52;;;;;;;2.32;60.15;98602.44;5024371;28;20026;-64
2023/03/09 09:20:31;;;;;;;0.50;0.50;;;;;;;2.38;60.85;98604.97;5026073;28;20109;-65
2023/03/09 09:22:56;;;;;;;0.50;0.50;;;;;;;2.41;60.22;98597.28;5025770;28;20486;-66
2023/03/09 09:25:22;;;;;;;0.50;0.50;;;;;;;2.34;59.74;98623.78;5025906;28;20029;-65
2023/03/09 09:27:54;;;;;;;0.52;0.52;;;;;;;2.17;60.15;98605.94;5024455;28;20024;-66
2023/03/09 09:30:19;;;;;;;0.60;0.60;;;;;;;1.99;60.87;98617.94;5026039;28;20022;-67
2023/03/09 09:32:45;;;;;;;0.60;0.60;;;;;;;1.86;61.71;98624.78;5026284;28;20025;-66
2023/03/09 09:35:11;;;;;;;0.50;0.50;;;;;;;1.72;62.39;98635.03;5025522;28;20018;-65
2023/03/09 09:37:39;;;;;;;0.50;0.50;;;;;;;1.61;62.90;98643.56;5024334;28;20038;-65
2023/03/09 09:40:05;;;;;;;0.50;0.50;;;;;;;1.57;63.37;98638.44;5025712;28;20030;-66
2023/03/09 09:42:39;;;;;;;0.50;0.50;;;;;;;1.56;63.67;98635.06;5025680;28;20163;-66
2023/03/09 09:45:22;;;;;;;0.50;0.50;;;;;;;1.67;63.99;98637.59;5025669;28;20026;-66
2023/03/09 09:47:48;;;;;;;0.50;0.50;;;;;;;1.71;63.90;98644.41;5025692;28;20026;-66
2023/03/09 09:50:14;;;;;;;0.50;0.50;;;;;;;1.82;63.45;98646.94;5024265;28;20037;-66
2023/03/09 09:52:52;;;;;;;2.15;2.05;;;;;;;1.80;63.43;98651.25;5025400;28;20029;-66
2023/03/09 09:55:17;;;;;;;0.50;0.50;;;;;;;1.73;63.05;98650.38;5024217;28;20078;-66
2023/03/09 09:58:21;;;;;;;0.50;0.50;;;;;;;1.56;63.65;98623.97;5025278;28;20040;-65
2023/03/09 10:00:51;;;;;;;0.57;0.57;;;;;;;1.65;64.05;98620.53;5023406;28;20037;-66
2023/03/09 10:03:25;;;;;;;0.50;0.50;;;;;;;1.87;64.27;98648.66;5024396;28;20032;-69
2023/03/09 10:06:13;;;;;;;0.60;0.60;;;;;;;2.01;64.63;98652.06;5025620;28;20441;-68
2023/03/09 10:08:57;;;;;;;0.50;0.50;;;;;;;2.13;64.33;98651.16;5025190;28;20386;-68
2023/03/09 10:11:33;;;;;;;0.60;0.60;;;;;;;2.31;63.81;98652.84;5025142;28;20022;-66
2023/03/09 10:14:20;;;;;;;0.50;0.50;;;;;;;2.35;63.13;98656.22;5025416;28;20026;-64
2023/03/09 10:16:52;;;;;;;0.50;0.50;;;;;;;2.33;63.28;98651.09;5025296;28;20030;-64
2023/03/09 10:19:32;;;;;;;0.50;0.50;;;;;;;2.33;63.83;98655.41;5024702;28;20036;-65
2023/03/09 10:22:05;;;;;;;0.50;0.50;;;;;;;2.29;63.97;98651.13;5025397;28;20022;-65
2023/03/09 10:24:52;;;;;;;0.50;0.50;;;;;;;2.27;64.16;98657.97;5025095;28;20022;-64
2023/03/09 10:27:17;;;;;;;0.50;0.50;;;;;;;2.29;64.00;98662.22;5025053;28;20029;-66
2023/03/09 10:30:02;;;;;;;0.50;0.50;;;;;;;2.25;64.12;98665.66;5025106;28;20047;-65
2023/03/09 10:32:39;;;;;;;0.50;0.50;;;;;;;2.23;64.38;98650.31;5025024;28;20033;-67
2023/03/09 10:35:29;;;;;;;0.50;0.50;;;;;;;2.16;64.70;98656.28;5023930;28;20072;-64
2023/03/09 10:37:55;;;;;;;0.50;0.50;;;;;;;2.26;65.24;98663.94;5025209;28;20418;-64
2023/03/09 10:40:29;;;;;;;0.50;0.50;;;;;;;2.41;65.01;98666.44;5025165;28;20471;-67
2023/03/09 10:42:57;;;;;;;2.30;2.15;;;;;;;2.55;64.63;98657.88;5025103;28;20028;-67
2023/03/09 10:45:32;;;;;;;0.60;0.60;;;;;;;2.57;64.27;98656.16;5025136;28;20053;-68
2023/03/09 10:48:05;;;;;;;0.50;0.50;;;;;;;2.52;63.78;98660.44;5024805;28;20026;-68
2023/03/09 10:50:40;;;;;;;0.50;0.50;;;;;;;2.44;63.96;98669.03;5023918;28;20033;-67
2023/03/09 10:53:27;;;;;;;0.50;0.50;;;;;;;2.35;64.78;98666.47;5024547;28;20030;-68
2023/03/09 10:55:54;;;;;;;0.50;0.50;;;;;;;2.26;65.27;98657.13;5024570;28;20118;-68
2023/03/09 10:58:22;;;;;;;0.50;0.50;;;;;;;2.18;65.45;98675.06;5024924;28;20033;-68
2023/03/09 11:01:23;;;;;;;0.50;0.50;;;;;;;2.13;65.95;98670.78;5024790;28;20025;-68
2023/03/09 11:03:48;;;;;;;0.50;0.50;;;;;;;2.17;66.27;98673.34;5015721;28;20034;-67
2023/03/09 11:06:19;;;;;;;0.50;0.50;;;;;;;2.21;66.23;98675.06;5024677;28;20061;-67
2023/03/09 11:08:54;;;;;;;0.67;0.67;;;;;;;2.12;66.71;98666.53;5024831;28;20378;-67
2023/03/09 11:11:22;;;;;;;0.50;0.50;;;;;;;2.28;66.50;98675.03;5024690;28;20735;-68
2023/03/09 11:13:47;;;;;;;0.50;0.50;;;;;;;2.25;66.67;98678.47;5024584;28;20030;-67
2023/03/09 11:16:13;;;;;;;0.50;0.50;;;;;;;2.23;67.10;98678.47;5024280;28;20041;-67
2023/03/09 11:18:39;;;;;;;0.50;0.50;;;;;;;2.23;67.25;98681.03;5024023;28;20025;-67
2023/03/09 11:21:04;;;;;;;0.50;0.50;;;;;;;2.22;67.13;98683.59;5024804;28;20040;-66
2023/03/09 11:23:38;;;;;;;0.80;0.80;;;;;;;2.23;66.78;98683.59;5024435;28;20058;-65
2023/03/09 11:26:25;;;;;;;0.50;0.50;;;;;;;2.20;66.41;98682.75;5024587;28;20033;-67
2023/03/09 11:29:06;;;;;;;0.50;0.50;;;;;;;2.20;66.36;98678.47;5024305;28;20251;-67
2023/03/09 11:31:41;;;;;;;0.50;0.50;;;;;;;2.26;66.44;98676.75;5024268;28;20052;-68
2023/03/09 11:34:13;;;;;;;1.30;1.30;;;;;;;2.26;65.54;98686.97;5024416;28;20021;-68
2023/03/09 11:36:45;;;;;;;0.50;0.50;;;;;;;2.26;65.61;98687.84;5024520;28;20042;-67
2023/03/09 11:39:37;;;;;;;0.50;0.50;;;;;;;2.41;65.41;98681.81;5024391;28;20561;-67